createdAt,value
2022-12-20T00:02:13.191Z,6.13
2022-12-20T00:04:41.192Z,5.70
2022-12-20T00:07:09.262Z,6.23
2022-12-20T00:09:37.619Z,5.67
2022-12-20T00:12:05.899Z,5.67
2022-12-20T00:14:33.795Z,6.27
2022-12-20T00:17:01.734Z,5.83
2022-12-20T00:19:31.012Z,5.20
2022-12-20T00:21:58.941Z,5.50
2022-12-20T00:24:26.876Z,5.37
2022-12-20T00:26:54.838Z,5.43
2022-12-20T00:29:22.824Z,5.10
2022-12-20T00:31:50.799Z,5.50
2022-12-20T00:34:18.825Z,6.00
2022-12-20T00:36:48.124Z,5.20
2022-12-20T00:39:16.021Z,5.80
2022-12-20T00:41:44.114Z,5.73
2022-12-20T00:44:12.001Z,5.70
2022-12-20T00:46:40.015Z,5.23
2022-12-20T00:49:08.377Z,5.63
2022-12-20T00:51:36.289Z,5.67
2022-12-20T00:54:05.833Z,6.37
2022-12-20T00:56:33.945Z,5.33
2022-12-20T00:59:01.906Z,4.60
2022-12-20T01:01:31.857Z,4.67
2022-12-20T01:04:00.262Z,5.10
2022-12-20T01:06:28.645Z,6.03
2022-12-20T01:08:56.781Z,5.33
2022-12-20T01:11:27.254Z,5.57
2022-12-20T01:13:56.934Z,4.67
2022-12-20T01:16:26.716Z,5.97
2022-12-20T01:18:55.264Z,4.70
2022-12-20T01:21:25.254Z,5.50
2022-12-20T01:23:53.423Z,5.20
2022-12-20T01:26:23.288Z,5.57
2022-12-20T01:28:54.974Z,4.40
2022-12-20T01:31:23.720Z,5.30
2022-12-20T01:33:52.409Z,4.50
2022-12-20T01:36:22.788Z,4.70
2022-12-20T01:38:50.725Z,5.20
2022-12-20T01:41:20.112Z,4.20
2022-12-20T01:43:52.801Z,5.03
2022-12-20T01:46:22.443Z,5.03
2022-12-20T01:48:55.466Z,4.77
2022-12-20T01:51:24.623Z,4.90
2022-12-20T01:53:56.608Z,4.30
2022-12-20T01:56:24.591Z,4.90
2022-12-20T01:58:55.094Z,4.20
2022-12-20T02:01:23.859Z,4.50
2022-12-20T02:03:52.801Z,4.53
2022-12-20T02:06:22.179Z,4.87
2022-12-20T02:08:51.480Z,5.13
2022-12-20T02:11:30.540Z,4.60
2022-12-20T02:14:08.636Z,5.03
2022-12-20T02:16:43.162Z,4.83
2022-12-20T02:19:22.057Z,5.13
2022-12-20T02:21:54.661Z,5.37
2022-12-20T02:24:51.863Z,4.93
2022-12-20T02:27:45.272Z,5.07
2022-12-20T02:30:16.856Z,5.10
2022-12-20T02:32:59.203Z,5.00
2022-12-20T02:35:29.335Z,4.90
2022-12-20T02:37:59.980Z,5.47
2022-12-20T02:40:30.127Z,4.67
2022-12-20T02:43:00.888Z,4.57
2022-12-20T02:45:34.015Z,4.30
2022-12-20T02:48:04.840Z,5.10
2022-12-20T02:50:35.850Z,4.67
2022-12-20T02:53:04.114Z,5.17
2022-12-20T02:55:38.657Z,4.23
2022-12-20T02:58:08.257Z,4.83
2022-12-20T03:00:41.540Z,4.97
2022-12-20T03:03:25.845Z,4.20
2022-12-20T03:05:55.342Z,4.53
2022-12-20T03:08:24.335Z,4.40
2022-12-20T03:10:53.347Z,4.63
2022-12-20T03:13:21.715Z,4.43
2022-12-20T03:15:51.190Z,5.10
2022-12-20T03:18:19.188Z,4.50
2022-12-20T03:20:47.132Z,4.90
2022-12-20T03:23:15.125Z,4.17
2022-12-20T03:25:43.021Z,3.87
2022-12-20T03:28:11.099Z,4.47
2022-12-20T03:30:39.121Z,4.33
2022-12-20T03:33:08.600Z,4.30
2022-12-20T03:35:36.519Z,3.70
2022-12-20T03:38:04.546Z,4.50
2022-12-20T03:40:32.653Z,4.03
2022-12-20T03:43:00.571Z,4.13
2022-12-20T03:45:28.500Z,4.57
2022-12-20T03:47:56.434Z,4.97
2022-12-20T03:50:25.751Z,4.00
2022-12-20T03:52:53.672Z,4.80
2022-12-20T03:55:21.589Z,3.93
2022-12-20T03:57:49.504Z,4.33
2022-12-20T04:00:18.629Z,4.47
2022-12-20T04:02:46.705Z,4.47
2022-12-20T04:05:14.795Z,4.33
2022-12-20T04:07:45.419Z,4.90
2022-12-20T04:10:13.558Z,4.13
2022-12-20T04:12:41.486Z,4.67
2022-12-20T04:15:10.012Z,4.33
2022-12-20T04:17:37.968Z,4.47
2022-12-20T04:20:19.163Z,4.17
2022-12-20T04:22:48.855Z,4.50
2022-12-20T04:25:18.291Z,4.43
2022-12-20T04:27:46.381Z,4.27
2022-12-20T04:30:15.111Z,4.00
2022-12-20T04:32:43.106Z,4.23
2022-12-20T04:35:11.335Z,5.00
2022-12-20T04:37:39.271Z,4.53
2022-12-20T04:40:10.438Z,4.23
2022-12-20T04:42:38.364Z,4.33
2022-12-20T04:45:07.108Z,4.20
2022-12-20T04:47:35.105Z,4.00
2022-12-20T04:50:03.052Z,4.03
2022-12-20T04:52:48.554Z,4.70
2022-12-20T04:55:18.344Z,5.37
2022-12-20T04:57:46.415Z,9.57
2022-12-20T05:00:15.844Z,4.87
2022-12-20T05:02:44.010Z,5.07
2022-12-20T05:05:12.075Z,4.70
2022-12-20T05:07:39.952Z,4.60
2022-12-20T05:10:08.738Z,4.43
2022-12-20T05:12:38.133Z,4.73
2022-12-20T05:15:07.515Z,4.50
2022-12-20T05:17:35.538Z,4.40
2022-12-20T05:20:03.685Z,4.80
2022-12-20T05:22:48.829Z,4.53
2022-12-20T05:25:34.238Z,4.73
2022-12-20T05:28:03.617Z,5.13
2022-12-20T05:30:31.583Z,4.83
2022-12-20T05:32:59.499Z,4.97
2022-12-20T05:35:27.441Z,4.67
2022-12-20T05:37:55.539Z,5.20
2022-12-20T05:40:23.502Z,5.33
2022-12-20T05:42:51.451Z,5.17
2022-12-20T05:45:20.743Z,5.00
2022-12-20T05:47:49.199Z,4.77
2022-12-20T05:50:19.189Z,5.03
2022-12-20T05:52:47.327Z,5.27
2022-12-20T05:55:15.418Z,5.13
2022-12-20T05:57:43.377Z,4.80
2022-12-20T06:00:13.336Z,5.13
2022-12-20T06:02:42.786Z,4.93
2022-12-20T06:05:11.141Z,4.97
2022-12-20T06:07:39.109Z,5.00
2022-12-20T06:10:08.378Z,5.03
2022-12-20T06:12:36.324Z,4.70
2022-12-20T06:15:04.364Z,4.23
2022-12-20T06:17:32.523Z,5.40
2022-12-20T06:20:01.895Z,4.70
2022-12-20T06:22:29.832Z,5.60
2022-12-20T06:24:57.718Z,5.40
2022-12-20T06:27:25.790Z,5.63
2022-12-20T06:29:54.586Z,4.77
2022-12-20T06:32:22.757Z,5.43
2022-12-20T06:34:51.702Z,4.60
2022-12-20T06:37:21.056Z,4.90
2022-12-20T06:39:48.980Z,4.53
2022-12-20T06:42:17.084Z,5.43
2022-12-20T06:44:44.983Z,5.83
2022-12-20T06:47:13.902Z,5.00
2022-12-20T06:49:41.988Z,6.73
2022-12-20T06:52:10.053Z,5.30
2022-12-20T06:54:39.516Z,4.93
2022-12-20T06:57:08.004Z,4.63
2022-12-20T06:59:36.325Z,4.60
2022-12-20T07:02:05.070Z,5.23
2022-12-20T07:04:33.481Z,5.20
2022-12-20T07:07:01.435Z,5.20
2022-12-20T07:09:29.935Z,4.83
2022-12-20T07:11:59.930Z,4.67
2022-12-20T07:14:28.055Z,5.77
2022-12-20T07:16:56.084Z,5.10
2022-12-20T07:19:24.075Z,5.37
2022-12-20T07:21:54.139Z,5.30
2022-12-20T07:24:22.079Z,5.50
2022-12-20T07:26:50.018Z,5.57
2022-12-20T07:29:19.452Z,5.70
2022-12-20T07:31:47.496Z,5.00
2022-12-20T07:34:15.491Z,5.23
2022-12-20T07:36:43.736Z,5.60
2022-12-20T07:39:11.724Z,4.70
2022-12-20T07:41:39.687Z,5.70
2022-12-20T07:44:07.861Z,4.93
2022-12-20T07:46:37.263Z,4.70
2022-12-20T07:49:05.773Z,5.50
2022-12-20T07:51:37.880Z,5.20
2022-12-20T07:54:10.584Z,5.10
2022-12-20T07:56:41.717Z,5.20
2022-12-20T07:59:11.223Z,4.83
2022-12-20T08:01:41.758Z,5.00
2022-12-20T08:04:12.511Z,4.60
2022-12-20T08:06:40.767Z,5.10
2022-12-20T08:09:09.788Z,5.50
2022-12-20T08:11:38.513Z,5.00
2022-12-20T08:14:08.321Z,4.90
2022-12-20T08:16:36.421Z,4.80
2022-12-20T08:19:06.135Z,5.30
2022-12-20T08:21:34.398Z,4.90
2022-12-20T08:24:02.332Z,5.10
2022-12-20T08:26:30.243Z,4.70
2022-12-20T08:28:58.182Z,5.00
2022-12-20T08:31:26.180Z,4.87
2022-12-20T08:33:56.202Z,5.93
2022-12-20T08:36:25.566Z,5.37
2022-12-20T08:38:53.595Z,5.17
2022-12-20T08:41:21.581Z,5.17
2022-12-20T08:43:49.629Z,4.90
2022-12-20T08:46:17.607Z,4.90
2022-12-20T08:48:48.732Z,5.83
2022-12-20T08:51:16.822Z,4.50
2022-12-20T08:53:46.237Z,5.13
2022-12-20T08:56:15.797Z,5.00
2022-12-20T08:58:44.663Z,4.73
2022-12-20T09:01:15.018Z,5.60
2022-12-20T09:03:43.749Z,5.17
2022-12-20T09:06:14.639Z,5.47
2022-12-20T09:08:42.926Z,4.53
2022-12-20T09:11:13.982Z,5.60
2022-12-20T09:13:44.419Z,4.73
2022-12-20T09:16:14.985Z,4.23
2022-12-20T09:18:43.308Z,5.00
2022-12-20T09:21:12.307Z,5.77
2022-12-20T09:23:49.206Z,4.83
2022-12-20T09:26:19.535Z,4.43
2022-12-20T09:28:48.612Z,5.47
2022-12-20T09:31:18.071Z,5.53
2022-12-20T09:33:46.429Z,4.63
2022-12-20T09:36:15.594Z,4.83
2022-12-20T09:38:43.579Z,5.40
2022-12-20T09:41:25.762Z,4.67
2022-12-20T09:43:53.798Z,5.00
2022-12-20T09:46:22.059Z,4.47
2022-12-20T09:48:50.350Z,5.43
2022-12-20T09:51:33.452Z,4.70
2022-12-20T09:54:08.546Z,4.80
2022-12-20T09:56:39.231Z,5.30
2022-12-20T09:59:09.516Z,4.50
2022-12-20T10:01:39.957Z,4.83
2022-12-20T10:04:13.768Z,5.70
2022-12-20T10:06:48.674Z,4.73
2022-12-20T10:09:30.274Z,4.87
2022-12-20T10:12:13.193Z,5.10
2022-12-20T10:14:55.622Z,5.43
2022-12-20T10:17:32.644Z,4.90
2022-12-20T10:20:21.306Z,5.60
2022-12-20T10:22:53.373Z,5.47
2022-12-20T10:25:23.989Z,5.47
2022-12-20T10:27:57.059Z,6.03
2022-12-20T10:30:27.994Z,4.63
2022-12-20T10:32:57.569Z,6.40
2022-12-20T10:35:29.152Z,5.90
2022-12-20T10:38:09.798Z,5.27
2022-12-20T10:41:18.521Z,5.03
2022-12-20T10:43:29.157Z,5.77
2022-12-20T10:45:59.363Z,5.27
2022-12-20T10:48:31.465Z,5.57
2022-12-20T10:51:04.084Z,4.87
2022-12-20T10:53:33.353Z,5.20
2022-12-20T10:56:20.746Z,5.00
2022-12-20T10:58:58.793Z,5.20
2022-12-20T11:01:30.742Z,4.67
2022-12-20T11:04:01.459Z,4.30
2022-12-20T11:06:41.994Z,4.73
2022-12-20T11:09:31.196Z,4.33
2022-12-20T11:12:08.196Z,4.43
2022-12-20T11:14:39.901Z,4.30
2022-12-20T11:17:22.604Z,4.10
2022-12-20T11:20:08.201Z,4.80
2022-12-20T11:22:46.693Z,4.17
2022-12-20T11:25:26.591Z,3.80
2022-12-20T11:28:00.890Z,4.83
2022-12-20T11:30:34.869Z,4.13
2022-12-20T11:33:15.842Z,4.20
2022-12-20T11:35:52.148Z,4.27
2022-12-20T11:38:29.444Z,3.67
2022-12-20T11:41:13.229Z,4.00
2022-12-20T11:44:24.592Z,4.20
2022-12-20T11:47:03.048Z,4.63
2022-12-20T11:49:48.651Z,4.60
2022-12-20T11:52:23.793Z,4.27
2022-12-20T11:55:00.524Z,3.90
2022-12-20T11:57:38.346Z,3.93
2022-12-20T12:00:19.873Z,4.33
2022-12-20T12:02:58.377Z,4.33
2022-12-20T12:05:30.915Z,4.33
2022-12-20T12:08:02.545Z,3.87
2022-12-20T12:10:33.259Z,4.30
2022-12-20T12:13:08.375Z,4.23
2022-12-20T12:15:41.564Z,4.17
2022-12-20T12:18:16.485Z,4.17
2022-12-20T12:20:51.034Z,4.20
2022-12-20T12:23:24.435Z,4.53
2022-12-20T12:25:53.278Z,4.17
2022-12-20T12:28:22.177Z,4.40
2022-12-20T12:30:54.257Z,4.83
2022-12-20T12:33:26.905Z,4.80
2022-12-20T12:36:23.911Z,4.53
2022-12-20T12:39:15.197Z,3.83
2022-12-20T12:42:17.883Z,4.67
2022-12-20T12:44:51.264Z,4.37
2022-12-20T12:47:23.057Z,4.50
2022-12-20T12:49:54.716Z,4.63
2022-12-20T12:52:44.718Z,5.00
2022-12-20T12:55:41.965Z,4.93
2022-12-20T12:58:35.416Z,4.63
2022-12-20T13:01:08.277Z,5.13
2022-12-20T13:03:46.255Z,4.70
2022-12-20T13:06:52.693Z,4.70
2022-12-20T13:09:23.897Z,4.70
2022-12-20T13:12:00.398Z,4.80
2022-12-20T13:14:51.298Z,4.50
2022-12-20T13:17:54.089Z,4.87
2022-12-20T13:20:24.644Z,4.77
2022-12-20T13:23:17.561Z,4.40
2022-12-20T13:25:49.816Z,5.63
2022-12-20T13:28:49.090Z,5.30
2022-12-20T13:31:37.765Z,5.23
2022-12-20T13:34:41.352Z,6.20
2022-12-20T13:37:27.564Z,4.90
2022-12-20T13:39:58.306Z,4.30
2022-12-20T13:42:45.706Z,5.00
2022-12-20T13:45:15.600Z,4.83
2022-12-20T13:47:52.979Z,4.33
2022-12-20T13:51:27.909Z,4.27
2022-12-20T13:54:27.820Z,4.53
2022-12-20T14:30:49.894Z,3.90
2022-12-20T14:36:39.102Z,3.90
2022-12-20T14:39:37.319Z,3.60
2022-12-20T14:42:58.024Z,3.93
2022-12-20T14:45:42.337Z,4.10
2022-12-20T15:03:17.276Z,3.70
2022-12-20T15:05:50.520Z,3.87
2022-12-20T15:08:23.259Z,3.80
2022-12-20T15:11:07.418Z,4.10
2022-12-20T15:13:46.448Z,4.17
2022-12-20T15:16:17.493Z,4.10
2022-12-20T15:18:46.531Z,4.30
2022-12-20T15:21:29.026Z,4.07
2022-12-20T15:24:37.301Z,3.73
2022-12-20T15:34:55.349Z,3.30
2022-12-20T15:37:23.229Z,3.90
2022-12-20T15:39:51.137Z,3.87
2022-12-20T15:42:19.885Z,3.87
2022-12-20T15:44:48.376Z,3.83
2022-12-20T15:47:17.340Z,3.90
2022-12-20T15:49:50.026Z,3.90
2022-12-20T15:52:22.200Z,3.93
2022-12-20T15:54:50.583Z,3.93
2022-12-20T15:57:18.668Z,4.43
2022-12-20T16:00:03.442Z,3.80
2022-12-20T16:02:32.751Z,4.20
2022-12-20T16:05:01.628Z,3.53
2022-12-20T16:07:31.040Z,4.07
2022-12-20T16:10:00.453Z,3.97
2022-12-20T16:12:29.847Z,4.60
2022-12-20T16:14:57.742Z,5.50
2022-12-20T16:17:25.724Z,4.50
2022-12-20T16:19:53.625Z,4.93
2022-12-20T16:22:23.146Z,5.00
2022-12-20T16:24:52.865Z,5.40
2022-12-20T16:27:21.626Z,4.50
2022-12-20T16:29:49.563Z,4.77
2022-12-20T16:32:18.482Z,4.27
2022-12-20T16:34:46.807Z,5.27
2022-12-20T16:37:14.803Z,4.43
2022-12-20T16:39:43.057Z,4.60
2022-12-20T16:42:15.195Z,4.57
2022-12-20T16:44:45.606Z,4.63
2022-12-20T16:47:14.963Z,4.43
2022-12-20T16:49:49.672Z,4.73
2022-12-20T16:52:20.700Z,4.77
2022-12-20T16:54:48.666Z,5.37
2022-12-20T16:57:17.999Z,4.40
2022-12-20T16:59:45.951Z,4.67
2022-12-20T17:02:23.456Z,4.80
2022-12-20T17:04:52.165Z,4.97
2022-12-20T17:07:20.119Z,4.50
2022-12-20T17:09:48.033Z,4.30
2022-12-20T17:12:18.234Z,4.50
2022-12-20T17:14:46.456Z,4.83
2022-12-20T17:17:14.383Z,4.83
2022-12-20T17:19:42.575Z,5.50
2022-12-20T17:24:57.860Z,4.50
2022-12-20T17:27:27.154Z,4.73
2022-12-20T17:29:55.079Z,4.77
2022-12-20T17:32:24.667Z,4.90
2022-12-20T17:34:54.336Z,4.37
2022-12-20T17:37:22.340Z,5.63
2022-12-20T17:39:50.322Z,5.23
2022-12-20T17:42:18.327Z,6.20
2022-12-20T17:44:47.713Z,5.33
2022-12-20T17:47:17.334Z,5.60
2022-12-20T17:49:45.340Z,5.63
2022-12-20T17:52:14.802Z,6.90
2022-12-20T17:54:42.834Z,6.97
2022-12-20T17:57:14.469Z,5.13
2022-12-20T17:59:42.576Z,5.90
2022-12-20T18:02:21.323Z,5.27
2022-12-20T18:04:49.496Z,5.53
2022-12-20T18:07:17.577Z,4.80
2022-12-20T18:09:47.805Z,5.67
2022-12-20T18:12:15.931Z,5.53
2022-12-20T18:14:43.852Z,5.30
2022-12-20T18:17:12.111Z,6.63
2022-12-20T18:19:41.475Z,5.77
2022-12-20T18:22:09.368Z,6.33
2022-12-20T18:24:37.293Z,5.87
2022-12-20T18:27:05.171Z,6.10
2022-12-20T18:29:33.160Z,6.60
2022-12-20T18:32:01.151Z,5.77
2022-12-20T18:34:29.180Z,5.50
2022-12-20T18:36:58.490Z,5.23
2022-12-20T18:39:26.467Z,6.13
2022-12-20T18:41:54.392Z,6.43
2022-12-20T18:44:22.359Z,5.37
2022-12-20T18:46:50.279Z,6.20
2022-12-20T18:49:18.211Z,6.43
2022-12-20T18:51:46.144Z,6.67
2022-12-20T18:54:15.852Z,5.60
2022-12-20T18:56:43.899Z,5.43
2022-12-20T18:59:12.960Z,5.23
2022-12-20T19:01:42.627Z,6.40
2022-12-20T19:04:11.825Z,6.67
2022-12-20T19:06:40.265Z,6.53
2022-12-20T19:09:09.711Z,6.73
2022-12-20T19:11:39.208Z,7.63
2022-12-20T19:14:08.886Z,7.33
2022-12-20T19:16:39.626Z,7.77
2022-12-20T19:19:08.331Z,7.30
2022-12-20T19:21:37.945Z,8.27
2022-12-20T19:24:08.095Z,8.63
2022-12-20T19:26:39.097Z,8.67
2022-12-20T19:29:07.484Z,8.13
2022-12-20T19:31:37.474Z,7.03
2022-12-20T19:34:07.603Z,7.30
2022-12-20T19:36:38.548Z,6.57
2022-12-20T19:39:08.183Z,7.33
2022-12-20T19:41:36.640Z,7.27
2022-12-20T19:44:06.302Z,7.80
2022-12-20T19:46:34.634Z,8.13
2022-12-20T19:49:03.423Z,8.50
2022-12-20T19:51:31.655Z,7.70
2022-12-20T19:54:00.016Z,8.50
2022-12-20T19:56:30.262Z,8.97
2022-12-20T19:58:58.250Z,8.27
2022-12-20T20:01:28.356Z,8.63
2022-12-20T20:03:57.507Z,8.63
2022-12-20T20:06:27.653Z,8.80
2022-12-20T20:08:57.804Z,9.10
2022-12-20T20:11:25.891Z,7.97
2022-12-20T20:13:53.927Z,8.37
2022-12-20T20:16:23.289Z,9.13
2022-12-20T20:18:52.781Z,9.07
2022-12-20T20:21:22.658Z,9.47
2022-12-20T20:23:51.365Z,9.10
2022-12-20T20:26:20.861Z,9.87
2022-12-20T20:28:48.754Z,8.67
2022-12-20T20:31:17.742Z,8.80
2022-12-20T20:33:46.187Z,9.10
2022-12-20T20:36:16.900Z,9.47
2022-12-20T20:38:45.711Z,8.80
2022-12-20T20:41:13.998Z,9.53
2022-12-20T20:43:42.169Z,9.70
2022-12-20T20:46:12.549Z,8.90
2022-12-20T20:48:41.331Z,9.43
2022-12-20T20:51:09.605Z,9.30
2022-12-20T20:53:39.426Z,9.67
2022-12-20T20:56:08.420Z,8.67
2022-12-20T20:58:37.004Z,9.43
2022-12-20T21:01:08.532Z,9.70
2022-12-20T21:03:36.849Z,10.07
2022-12-20T21:06:37.188Z,9.93
2022-12-20T21:08:56.531Z,10.20
2022-12-20T21:11:24.809Z,8.47
2022-12-20T21:13:54.555Z,10.47
2022-12-20T21:16:22.894Z,9.23
2022-12-20T21:18:51.946Z,10.23
2022-12-20T21:21:20.493Z,10.17
2022-12-20T21:23:48.863Z,9.03
2022-12-20T21:26:19.488Z,8.13
2022-12-20T21:28:47.516Z,10.10
2022-12-20T21:31:18.594Z,10.70
2022-12-20T21:33:47.045Z,10.53
2022-12-20T21:36:16.383Z,10.00
2022-12-20T21:38:48.589Z,9.47
2022-12-20T21:41:16.515Z,9.70
2022-12-20T21:43:46.158Z,10.00
2022-12-20T21:46:14.199Z,8.10
2022-12-20T21:48:43.372Z,9.63
2022-12-20T21:51:13.919Z,9.00
2022-12-20T21:53:43.319Z,9.00
2022-12-20T21:56:11.360Z,9.50
2022-12-20T21:58:39.640Z,8.87
2022-12-20T22:01:09.794Z,9.40
2022-12-20T22:03:38.381Z,9.70
2022-12-20T22:06:06.694Z,8.87
2022-12-20T22:08:35.381Z,9.17
2022-12-20T22:11:05.294Z,10.17
2022-12-20T22:13:40.664Z,9.17
2022-12-20T22:16:13.127Z,9.13
2022-12-20T22:18:41.967Z,9.70
2022-12-20T22:21:11.719Z,10.80
2022-12-20T22:23:39.953Z,10.13
2022-12-20T22:26:10.819Z,9.43
2022-12-20T22:28:38.904Z,9.33
2022-12-20T22:31:12.042Z,9.77
2022-12-20T22:33:40.124Z,9.73
2022-12-20T22:36:09.150Z,9.07
2022-12-20T22:38:37.165Z,10.07
2022-12-20T22:41:09.660Z,9.57
2022-12-20T22:43:37.986Z,8.70
2022-12-20T22:46:06.275Z,9.83
2022-12-20T22:48:35.652Z,9.13
2022-12-20T22:51:05.473Z,9.53
2022-12-20T22:53:33.915Z,9.33
2022-12-20T22:56:02.080Z,9.23
2022-12-20T22:58:30.597Z,8.77
2022-12-20T23:00:58.919Z,8.47
2022-12-20T23:03:27.480Z,9.00
2022-12-20T23:05:57.799Z,8.00
2022-12-20T23:08:28.032Z,8.07
2022-12-20T23:11:13.315Z,8.77
2022-12-20T23:13:59.232Z,8.33
2022-12-20T23:16:27.477Z,8.70
2022-12-20T23:18:55.731Z,9.20
2022-12-20T23:21:42.970Z,8.37
2022-12-20T23:24:11.283Z,9.13
2022-12-20T23:26:40.121Z,8.40
2022-12-20T23:29:08.897Z,9.07
2022-12-20T23:31:36.953Z,8.40
2022-12-20T23:34:05.126Z,8.47
2022-12-20T23:36:34.582Z,8.93
2022-12-20T23:39:03.006Z,8.10
2022-12-20T23:41:30.896Z,8.00
2022-12-20T23:43:58.933Z,8.27
2022-12-20T23:46:27.251Z,8.47
2022-12-20T23:48:55.334Z,7.63
2022-12-20T23:51:23.307Z,8.27
2022-12-20T23:53:53.229Z,7.90
2022-12-20T23:56:22.402Z,7.10
2022-12-20T23:58:54.394Z,6.97
